createdAt,value
2019-01-21T00:00:32.188Z,26.23
2019-01-21T00:03:01.363Z,23.97
2019-01-21T00:05:29.927Z,26.43
2019-01-21T00:07:58.593Z,26.90
2019-01-21T00:10:28.680Z,26.93
2019-01-21T00:12:57.805Z,25.83
2019-01-21T00:15:26.504Z,26.70
2019-01-21T00:17:55.071Z,23.23
2019-01-21T00:20:29.748Z,24.77
2019-01-21T00:22:58.345Z,28.77
2019-01-21T00:25:27.028Z,27.80
2019-01-21T00:27:55.563Z,27.43
2019-01-21T00:30:25.981Z,23.27
2019-01-21T00:32:54.516Z,24.67
2019-01-21T00:35:25.643Z,23.53
2019-01-21T00:37:55.399Z,24.87
2019-01-21T00:40:23.891Z,24.37
2019-01-21T00:42:52.437Z,25.53
2019-01-21T00:45:22.635Z,27.33
2019-01-21T00:47:51.103Z,24.43
2019-01-21T00:50:21.250Z,24.20
2019-01-21T00:52:49.701Z,24.87
2019-01-21T00:55:20.470Z,25.90
2019-01-21T00:57:48.905Z,27.17
2019-01-21T01:00:25.310Z,25.93
2019-01-21T01:02:54.118Z,25.33
2019-01-21T01:05:22.618Z,24.47
2019-01-21T01:07:51.102Z,25.73
2019-01-21T01:10:19.708Z,25.23
2019-01-21T01:12:48.291Z,25.10
2019-01-21T01:15:16.880Z,24.23
2019-01-21T01:17:45.534Z,23.67
2019-01-21T01:20:21.667Z,25.47
2019-01-21T01:22:50.132Z,26.47
2019-01-21T01:25:18.579Z,27.00
2019-01-21T01:27:48.381Z,25.93
2019-01-21T01:30:17.600Z,24.47
2019-01-21T01:32:46.172Z,27.60
2019-01-21T01:35:15.418Z,25.50
2019-01-21T01:37:44.437Z,25.27
2019-01-21T01:40:17.549Z,23.57
2019-01-21T01:42:46.201Z,24.60
2019-01-21T01:45:20.280Z,25.23
2019-01-21T01:47:51.126Z,23.53
2019-01-21T01:50:19.651Z,26.07
2019-01-21T01:52:48.263Z,25.00
2019-01-21T01:55:16.997Z,26.43
2019-01-21T01:57:45.543Z,23.63
2019-01-21T02:00:17.034Z,24.87
2019-01-21T02:02:45.628Z,23.43
2019-01-21T02:05:14.139Z,25.30
2019-01-21T02:07:42.891Z,24.87
2019-01-21T02:10:12.930Z,23.60
2019-01-21T02:12:44.279Z,25.90
2019-01-21T02:15:14.819Z,24.97
2019-01-21T02:17:43.329Z,25.13
2019-01-21T02:20:17.487Z,23.10
2019-01-21T02:22:50.714Z,22.57
2019-01-21T02:25:22.065Z,25.47
2019-01-21T02:28:02.648Z,23.27
2019-01-21T02:30:36.900Z,23.67
2019-01-21T02:33:31.128Z,23.67
2019-01-21T02:36:23.964Z,24.00
2019-01-21T02:39:20.006Z,24.27
2019-01-21T02:41:48.810Z,23.13
2019-01-21T02:44:26.154Z,24.80
2019-01-21T02:47:00.615Z,24.03
2019-01-21T02:49:50.234Z,23.30
2019-01-21T02:52:24.603Z,24.40
2019-01-21T02:55:11.045Z,24.17
2019-01-21T02:58:09.705Z,24.60
2019-01-21T03:01:01.045Z,23.47
2019-01-21T03:03:44.529Z,23.97
2019-01-21T03:06:24.797Z,23.63
2019-01-21T03:09:23.731Z,24.63
2019-01-21T03:12:10.648Z,25.13
2019-01-21T03:15:02.318Z,25.07
2019-01-21T03:18:08.078Z,23.57
2019-01-21T03:20:50.526Z,24.17
2019-01-21T03:23:28.101Z,24.27
2019-01-21T03:26:02.342Z,24.17
2019-01-21T03:28:40.099Z,24.87
2019-01-21T03:31:29.909Z,24.57
2019-01-21T03:34:07.436Z,24.70
2019-01-21T03:36:40.206Z,26.03
2019-01-21T03:39:29.475Z,25.07
2019-01-21T03:42:03.985Z,27.07
2019-01-21T03:44:58.525Z,25.67
2019-01-21T03:47:35.466Z,24.43
2019-01-21T03:50:28.039Z,24.93
2019-01-21T03:53:10.022Z,24.10
2019-01-21T03:55:38.560Z,22.43
2019-01-21T03:58:31.635Z,24.63
2019-01-21T04:01:03.410Z,25.30
2019-01-21T04:03:57.839Z,25.50
2019-01-21T04:06:32.329Z,26.13
2019-01-21T04:09:16.153Z,25.00
2019-01-21T04:11:56.743Z,24.93
2019-01-21T04:14:31.209Z,23.87
2019-01-21T04:17:18.069Z,25.20
2019-01-21T04:20:04.778Z,24.90
2019-01-21T04:22:39.155Z,24.17
2019-01-21T04:25:10.852Z,26.50
2019-01-21T04:27:48.014Z,24.77
2019-01-21T04:30:19.826Z,25.17
2019-01-21T04:32:57.661Z,25.07
2019-01-21T04:35:45.723Z,24.20
2019-01-21T04:38:20.693Z,27.23
2019-01-21T04:40:55.202Z,24.43
2019-01-21T04:43:42.120Z,23.70
2019-01-21T04:46:19.616Z,25.03
2019-01-21T04:49:00.206Z,24.07
2019-01-21T04:51:31.934Z,24.17
2019-01-21T04:54:29.247Z,24.83
2019-01-21T04:57:13.079Z,22.80
2019-01-21T05:00:12.193Z,23.07
2019-01-21T05:02:49.977Z,24.23
2019-01-21T05:05:30.604Z,25.07
2019-01-21T05:08:28.080Z,24.33
2019-01-21T05:11:19.217Z,24.23
2019-01-21T05:13:53.880Z,26.40
2019-01-21T05:16:34.660Z,23.93
2019-01-21T05:19:12.343Z,24.03
2019-01-21T05:21:44.126Z,23.37
2019-01-21T05:24:18.362Z,24.83
2019-01-21T05:27:01.738Z,25.10
2019-01-21T05:29:50.020Z,24.83
2019-01-21T05:32:49.494Z,27.17
2019-01-21T05:35:21.270Z,24.30
2019-01-21T05:37:55.697Z,23.73
2019-01-21T05:40:30.431Z,23.87
2019-01-21T05:43:27.927Z,26.37
2019-01-21T05:46:26.686Z,26.43
2019-01-21T05:49:25.417Z,26.00
2019-01-21T05:52:16.464Z,25.07
2019-01-21T05:55:06.387Z,26.33
2019-01-21T05:57:56.255Z,26.30
2019-01-21T06:00:40.203Z,25.03
2019-01-21T06:03:37.839Z,24.87
2019-01-21T06:06:09.837Z,26.30
2019-01-21T06:08:59.861Z,26.63
2019-01-21T06:11:37.384Z,25.17
2019-01-21T06:14:20.874Z,24.30
2019-01-21T06:16:59.526Z,25.27
2019-01-21T06:19:37.285Z,26.93
2019-01-21T06:22:18.221Z,27.30
2019-01-21T06:25:04.877Z,25.00
2019-01-21T06:27:42.517Z,26.10
2019-01-21T06:30:32.318Z,25.90
2019-01-21T06:33:06.637Z,23.70
2019-01-21T06:35:44.131Z,27.77
2019-01-21T06:38:16.098Z,25.80
2019-01-21T06:41:03.009Z,32.38
2019-01-21T06:43:49.616Z,25.93
2019-01-21T06:46:21.322Z,28.10
2019-01-21T06:48:53.120Z,26.97
2019-01-21T06:51:49.079Z,26.53
2019-01-21T06:54:45.080Z,26.10
2019-01-21T06:57:41.014Z,26.80
2019-01-21T07:00:24.944Z,22.40
2019-01-21T07:03:02.437Z,23.20
2019-01-21T07:05:57.774Z,27.27
2019-01-21T07:08:29.841Z,26.47
2019-01-21T07:11:04.221Z,24.97
2019-01-21T07:13:52.204Z,24.37
2019-01-21T07:16:42.240Z,26.43
2019-01-21T07:19:13.880Z,25.90
2019-01-21T07:21:50.263Z,25.07
2019-01-21T07:24:43.055Z,26.60
2019-01-21T07:27:29.011Z,24.43
2019-01-21T07:30:04.357Z,25.23
2019-01-21T07:32:39.150Z,26.23
2019-01-21T07:35:16.953Z,23.33
2019-01-21T07:37:48.648Z,24.40
2019-01-21T07:40:36.712Z,24.13
2019-01-21T07:43:32.519Z,20.27
2019-01-21T07:46:22.400Z,21.23
2019-01-21T07:48:59.966Z,23.40
2019-01-21T07:51:43.349Z,26.93
2019-01-21T07:54:23.867Z,25.00
2019-01-21T07:56:58.215Z,26.70
2019-01-21T07:59:56.084Z,27.30
2019-01-21T08:02:33.442Z,26.67
2019-01-21T08:05:20.312Z,25.00
2019-01-21T08:08:00.838Z,24.53
2019-01-21T08:10:47.885Z,26.37
2019-01-21T08:13:37.436Z,23.67
2019-01-21T08:16:23.912Z,26.37
2019-01-21T08:18:55.855Z,25.63
2019-01-21T08:21:45.843Z,24.63
2019-01-21T08:24:17.513Z,24.13
2019-01-21T08:27:04.437Z,25.67
2019-01-21T08:29:36.101Z,25.73
2019-01-21T08:32:07.852Z,26.27
2019-01-21T08:34:42.468Z,25.33
2019-01-21T08:37:26.266Z,26.87
2019-01-21T08:40:03.613Z,25.97
2019-01-21T08:42:46.915Z,25.17
2019-01-21T08:45:22.184Z,25.87
2019-01-21T08:48:29.192Z,27.37
2019-01-21T08:51:03.463Z,25.83
2019-01-21T08:53:37.622Z,28.63
2019-01-21T08:56:15.228Z,25.43
2019-01-21T08:59:04.726Z,26.60
2019-01-21T09:01:58.887Z,25.23
2019-01-21T09:04:36.266Z,26.00
2019-01-21T09:07:14.096Z,27.90
2019-01-21T09:09:54.805Z,28.30
2019-01-21T09:12:52.759Z,27.17
2019-01-21T09:15:27.172Z,27.33
2019-01-21T09:18:19.798Z,26.40
2019-01-21T09:21:12.631Z,26.83
2019-01-21T09:23:55.768Z,26.93
2019-01-21T09:26:45.381Z,27.07
2019-01-21T09:29:26.897Z,28.63
2019-01-21T09:32:15.623Z,28.17
2019-01-21T09:35:02.066Z,25.47
2019-01-21T09:37:39.550Z,25.83
2019-01-21T09:40:32.486Z,27.23
2019-01-21T09:43:04.557Z,29.13
2019-01-21T09:45:44.795Z,28.53
2019-01-21T09:48:12.339Z,28.67
2019-01-21T09:50:40.752Z,28.47
2019-01-21T09:53:09.162Z,26.97
2019-01-21T09:55:39.127Z,25.13
2019-01-21T09:58:09.223Z,25.90
2019-01-21T10:00:37.641Z,27.57
2019-01-21T10:03:06.108Z,29.10
2019-01-21T10:05:35.570Z,28.17
2019-01-21T10:08:13.640Z,24.80
2019-01-21T10:10:48.298Z,27.13
2019-01-21T10:13:34.684Z,26.57
2019-01-21T10:16:29.100Z,27.80
2019-01-21T10:19:15.321Z,29.30
2019-01-21T10:22:14.458Z,26.93
2019-01-21T10:25:01.042Z,26.30
2019-01-21T10:27:35.258Z,28.53
2019-01-21T10:30:12.346Z,26.03
2019-01-21T10:33:06.677Z,27.47
2019-01-21T10:35:40.866Z,28.87
2019-01-21T10:38:18.064Z,28.13
2019-01-21T10:40:52.933Z,28.63
2019-01-21T10:43:27.208Z,28.90
2019-01-21T10:46:07.772Z,24.80
2019-01-21T10:48:45.119Z,27.53
2019-01-21T10:51:25.866Z,26.93
2019-01-21T10:54:00.235Z,26.67
2019-01-21T10:56:31.832Z,27.13
2019-01-21T10:59:12.431Z,29.33
2019-01-21T11:01:53.078Z,28.70
2019-01-21T11:04:33.813Z,26.47
2019-01-21T11:07:20.743Z,29.10
2019-01-21T11:09:55.219Z,28.13
2019-01-21T11:12:44.913Z,27.80
2019-01-21T11:15:25.474Z,28.53
2019-01-21T11:17:58.135Z,28.10
2019-01-21T11:20:32.370Z,30.00
2019-01-21T11:23:07.026Z,27.93
2019-01-21T11:26:12.950Z,27.63
2019-01-21T11:28:56.161Z,28.63
2019-01-21T11:31:33.678Z,28.13
2019-01-21T11:34:11.389Z,28.40
2019-01-21T11:36:45.848Z,27.87
2019-01-21T11:39:23.534Z,27.33
2019-01-21T11:42:10.255Z,28.77
2019-01-21T11:44:53.846Z,28.50
2019-01-21T11:47:49.981Z,25.63
2019-01-21T11:50:33.491Z,25.90
2019-01-21T11:53:14.270Z,24.93
2019-01-21T11:55:50.704Z,25.13
2019-01-21T11:58:54.373Z,27.93
2019-01-21T12:01:28.876Z,29.13
2019-01-21T12:04:03.197Z,27.97
2019-01-21T12:06:35.370Z,28.57
2019-01-21T12:09:12.939Z,29.63
2019-01-21T12:11:50.338Z,28.57
2019-01-21T12:14:39.891Z,27.33
2019-01-21T12:17:12.688Z,26.97
2019-01-21T12:20:03.323Z,27.13
2019-01-21T12:23:09.146Z,26.87
2019-01-21T12:25:56.276Z,27.90
2019-01-21T12:28:28.059Z,27.47
2019-01-21T12:31:08.323Z,28.00
2019-01-21T12:33:52.082Z,27.47
2019-01-21T12:36:27.530Z,27.83
2019-01-21T12:39:23.458Z,28.33
2019-01-21T12:41:57.749Z,28.27
2019-01-21T12:44:32.333Z,29.00
2019-01-21T12:47:07.117Z,28.83
2019-01-21T12:50:10.653Z,27.43
2019-01-21T12:52:42.380Z,28.90
2019-01-21T12:55:28.838Z,29.80
2019-01-21T12:58:06.356Z,29.00
2019-01-21T13:00:46.687Z,28.50
2019-01-21T13:03:24.311Z,29.23
2019-01-21T13:06:23.098Z,29.57
2019-01-21T13:09:10.308Z,29.80
2019-01-21T13:11:53.652Z,28.93
2019-01-21T13:14:25.321Z,30.60
2019-01-21T13:16:56.996Z,30.00
2019-01-21T13:19:37.839Z,30.17
2019-01-21T13:22:30.819Z,31.03
2019-01-21T13:25:23.912Z,28.23
2019-01-21T13:28:04.379Z,30.00
2019-01-21T13:30:58.663Z,28.20
2019-01-21T13:33:39.082Z,30.00
2019-01-21T13:36:22.097Z,29.47
2019-01-21T13:39:00.898Z,28.07
2019-01-21T13:41:41.832Z,29.83
2019-01-21T13:44:31.464Z,29.37
2019-01-21T13:47:09.021Z,27.83
2019-01-21T13:50:00.460Z,27.93
2019-01-21T13:53:03.709Z,30.70
2019-01-21T13:55:50.972Z,29.50
2019-01-21T13:58:28.761Z,28.73
2019-01-21T14:01:21.125Z,28.13
2019-01-21T14:03:58.495Z,27.60
2019-01-21T14:06:33.147Z,29.00
2019-01-21T14:09:23.114Z,26.33
2019-01-21T14:12:11.300Z,28.07
2019-01-21T14:14:48.608Z,30.00
2019-01-21T14:17:35.330Z,28.87
2019-01-21T14:20:22.375Z,27.57
2019-01-21T14:23:09.541Z,29.53
2019-01-21T14:25:50.276Z,27.10
2019-01-21T14:28:24.751Z,30.37
2019-01-21T14:30:58.987Z,26.47
2019-01-21T14:33:33.571Z,28.17
2019-01-21T14:36:20.252Z,28.97
2019-01-21T14:39:04.106Z,28.10
2019-01-21T14:41:38.688Z,27.50
2019-01-21T14:44:40.714Z,29.30
2019-01-21T14:47:23.914Z,28.87
2019-01-21T14:50:01.517Z,28.30
2019-01-21T14:52:45.429Z,27.50
2019-01-21T14:55:19.728Z,28.97
2019-01-21T14:58:00.071Z,29.47
2019-01-21T15:00:49.795Z,27.90
2019-01-21T15:03:38.292Z,28.77
2019-01-21T15:06:25.523Z,29.53
2019-01-21T15:09:00.006Z,27.73
2019-01-21T15:11:37.034Z,28.83
2019-01-21T15:14:20.809Z,27.47
2019-01-21T15:17:09.291Z,28.40
2019-01-21T15:19:39.683Z,28.27
2019-01-21T15:22:19.936Z,28.17
2019-01-21T15:25:01.060Z,29.23
2019-01-21T15:27:38.785Z,28.27
2019-01-21T15:30:19.296Z,27.10
2019-01-21T15:32:56.983Z,29.40
2019-01-21T15:35:37.770Z,25.87
2019-01-21T15:38:18.293Z,25.90
2019-01-21T15:41:07.943Z,28.23
2019-01-21T15:43:45.477Z,29.53
2019-01-21T15:46:17.333Z,29.03
2019-01-21T15:51:31.347Z,28.33
2019-01-21T15:54:19.161Z,26.37
2019-01-21T15:57:11.789Z,27.93
2019-01-21T16:00:22.717Z,30.07
2019-01-21T16:02:57.088Z,27.90
2019-01-21T16:05:37.747Z,28.20
2019-01-21T16:08:09.479Z,28.57
2019-01-21T16:10:41.198Z,30.30
2019-01-21T16:13:13.012Z,30.13
2019-01-21T16:16:08.599Z,30.47
2019-01-21T16:18:43.100Z,31.47
2019-01-21T16:21:26.557Z,28.60
2019-01-21T16:24:19.841Z,28.13
2019-01-21T16:26:51.553Z,32.07
2019-01-21T16:29:25.850Z,30.83
2019-01-21T16:31:56.510Z,38.27
2019-01-21T16:34:46.317Z,30.87
2019-01-21T16:37:23.434Z,32.57
2019-01-21T16:40:29.591Z,35.40
2019-01-21T16:42:58.220Z,27.33
2019-01-21T16:45:26.533Z,27.90
2019-01-21T16:47:55.019Z,28.10
2019-01-21T16:50:23.577Z,26.77
2019-01-21T16:52:52.076Z,28.50
2019-01-21T16:55:20.508Z,28.93
2019-01-21T16:57:48.822Z,30.30
2019-01-21T17:00:17.493Z,29.90
2019-01-21T17:02:46.183Z,28.73
2019-01-21T17:05:15.112Z,29.97
2019-01-21T17:07:43.791Z,29.60
2019-01-21T17:10:12.456Z,28.70
2019-01-21T17:12:41.010Z,29.13
2019-01-21T17:15:11.743Z,30.47
2019-01-21T17:17:40.085Z,30.10
2019-01-21T17:20:14.879Z,27.40
2019-01-21T17:22:43.479Z,28.63
2019-01-21T17:25:13.609Z,31.20
2019-01-21T17:27:42.189Z,29.83
2019-01-21T17:30:13.974Z,30.27
2019-01-21T17:32:42.733Z,28.73
2019-01-21T17:35:12.780Z,29.57
2019-01-21T17:37:41.166Z,30.63
2019-01-21T17:40:13.039Z,28.87
2019-01-21T17:42:41.506Z,29.47
2019-01-21T17:45:13.335Z,29.47
2019-01-21T17:47:41.947Z,29.47
2019-01-21T17:50:13.981Z,30.13
2019-01-21T17:52:42.433Z,29.10
2019-01-21T17:55:11.430Z,28.90
2019-01-21T17:57:41.761Z,29.37
2019-01-21T18:00:15.480Z,28.13
2019-01-21T18:02:44.165Z,30.87
2019-01-21T18:05:13.811Z,38.83
2019-01-21T18:07:42.476Z,31.43
2019-01-21T18:10:13.679Z,30.87
2019-01-21T18:12:42.226Z,31.20
2019-01-21T18:15:12.443Z,31.33
2019-01-21T18:17:41.095Z,30.20
2019-01-21T18:20:15.063Z,29.20
2019-01-21T18:22:46.371Z,29.93
2019-01-21T18:25:14.840Z,30.40
2019-01-21T18:27:43.273Z,33.00
2019-01-21T18:30:14.937Z,27.03
2019-01-21T18:32:43.605Z,29.57
2019-01-21T18:35:13.228Z,27.70
2019-01-21T18:37:41.629Z,30.50
2019-01-21T18:40:12.846Z,30.33
2019-01-21T18:42:41.356Z,31.37
2019-01-21T18:45:12.692Z,31.03
2019-01-21T18:47:41.403Z,31.23
2019-01-21T18:50:11.474Z,28.83
2019-01-21T18:52:39.963Z,31.30
2019-01-21T18:55:09.584Z,30.33
2019-01-21T18:57:38.045Z,29.17
2019-01-21T19:00:15.634Z,28.63
2019-01-21T19:02:44.390Z,29.53
2019-01-21T19:05:13.142Z,31.43
2019-01-21T19:07:41.772Z,29.77
2019-01-21T19:10:13.057Z,31.87
2019-01-21T19:12:41.632Z,30.53
2019-01-21T19:15:15.689Z,31.10
2019-01-21T19:17:44.023Z,30.10
2019-01-21T19:20:14.757Z,28.40
2019-01-21T19:22:43.302Z,30.53
2019-01-21T19:25:12.295Z,29.67
2019-01-21T19:27:43.262Z,32.23
2019-01-21T19:30:20.221Z,30.47
2019-01-21T19:32:52.191Z,30.63
2019-01-21T19:35:23.851Z,31.70
2019-01-21T19:37:52.436Z,29.20
2019-01-21T19:40:22.172Z,29.37
2019-01-21T19:42:50.605Z,29.93
2019-01-21T19:45:19.647Z,29.73
2019-01-21T19:47:48.289Z,29.93
2019-01-21T19:50:21.861Z,28.87
2019-01-21T19:52:50.412Z,29.30
2019-01-21T19:55:26.088Z,32.07
2019-01-21T19:57:54.587Z,30.57
2019-01-21T20:00:23.768Z,28.33
2019-01-21T20:02:52.276Z,28.87
2019-01-21T20:05:20.924Z,26.70
2019-01-21T20:07:49.736Z,28.23
2019-01-21T20:10:20.300Z,29.90
2019-01-21T20:12:49.127Z,30.40
2019-01-21T20:15:18.302Z,28.97
2019-01-21T20:17:47.071Z,28.53
2019-01-21T20:20:18.477Z,28.40
2019-01-21T20:22:46.993Z,28.13
2019-01-21T20:25:15.639Z,27.20
2019-01-21T20:27:44.505Z,28.20
2019-01-21T20:30:16.327Z,29.10
2019-01-21T20:32:44.850Z,29.03
2019-01-21T20:35:14.063Z,31.23
2019-01-21T20:37:42.676Z,26.97
2019-01-21T20:40:23.201Z,29.27
2019-01-21T20:42:51.880Z,29.13
2019-01-21T20:45:20.572Z,31.47
2019-01-21T20:47:49.201Z,31.27
2019-01-21T20:50:28.534Z,30.80
2019-01-21T20:52:57.262Z,30.30
2019-01-21T20:55:25.739Z,31.67
2019-01-21T20:57:54.189Z,29.80
2019-01-21T21:00:24.699Z,30.40
2019-01-21T21:02:54.081Z,31.53
2019-01-21T21:05:22.614Z,28.93
2019-01-21T21:07:51.082Z,29.90
2019-01-21T21:10:19.682Z,30.60
2019-01-21T21:12:48.253Z,30.20
2019-01-21T21:15:24.908Z,29.00
2019-01-21T21:17:53.596Z,33.00
2019-01-21T21:20:22.026Z,30.93
2019-01-21T21:22:50.568Z,38.90
2019-01-21T21:25:19.575Z,32.10
2019-01-21T21:27:47.956Z,30.20
2019-01-21T21:30:24.862Z,30.43
2019-01-21T21:32:53.378Z,30.67
2019-01-21T21:35:22.404Z,30.93
2019-01-21T21:37:52.471Z,29.30
2019-01-21T21:40:22.239Z,29.17
2019-01-21T21:42:50.784Z,26.73
2019-01-21T21:45:20.911Z,27.57
2019-01-21T21:47:49.820Z,26.67
2019-01-21T21:50:24.254Z,27.47
2019-01-21T21:52:52.716Z,29.40
2019-01-21T21:55:23.839Z,28.27
2019-01-21T21:57:52.391Z,29.17
2019-01-21T22:00:23.990Z,28.53
2019-01-21T22:02:53.142Z,29.03
2019-01-21T22:05:21.816Z,29.73
2019-01-21T22:07:50.233Z,30.47
2019-01-21T22:10:21.959Z,28.77
2019-01-21T22:12:50.728Z,30.13
2019-01-21T22:15:23.823Z,30.80
2019-01-21T22:17:52.769Z,29.63
2019-01-21T22:20:22.950Z,28.80
2019-01-21T22:22:51.715Z,30.50
2019-01-21T22:25:20.598Z,29.13
2019-01-21T22:27:49.182Z,29.80
2019-01-21T22:30:20.414Z,27.70
2019-01-21T22:32:50.675Z,29.53
2019-01-21T22:35:19.405Z,29.40
2019-01-21T22:37:48.334Z,30.20
2019-01-21T22:40:18.982Z,29.37
2019-01-21T22:42:49.638Z,31.23
2019-01-21T22:45:20.853Z,30.57
2019-01-21T22:47:52.580Z,27.90
2019-01-21T22:50:21.210Z,31.00
2019-01-21T22:52:49.987Z,30.90
2019-01-21T22:55:18.556Z,30.33
2019-01-21T22:57:49.997Z,31.60
2019-01-21T23:00:39.731Z,31.60
2019-01-21T23:03:08.387Z,30.13
2019-01-21T23:05:40.105Z,29.37
2019-01-21T23:08:11.583Z,30.40
2019-01-21T23:10:40.138Z,29.63
2019-01-21T23:13:08.641Z,28.70
2019-01-21T23:15:38.724Z,30.30
2019-01-21T23:18:07.618Z,30.13
2019-01-21T23:20:37.696Z,31.27
2019-01-21T23:23:08.002Z,30.07
2019-01-21T23:25:36.507Z,29.17
2019-01-21T23:28:05.073Z,29.00
2019-01-21T23:30:33.629Z,27.23
2019-01-21T23:33:03.836Z,29.27
2019-01-21T23:35:32.323Z,29.53
2019-01-21T23:38:01.114Z,29.43
2019-01-21T23:40:29.687Z,25.90
2019-01-21T23:43:00.967Z,29.27
2019-01-21T23:45:32.298Z,27.97
2019-01-21T23:48:01.099Z,28.33
2019-01-21T23:50:29.840Z,30.83
2019-01-21T23:53:02.780Z,29.97
2019-01-21T23:55:31.333Z,30.53
2019-01-21T23:58:02.885Z,28.47
